Terminal Aerodrome Forecast
Issued by NWS Brownsville, TX

Home | Current Version | Previous Version | Text Only | Print | Product List | Glossary On
Versions: 1 2 3 4 5 6 7 8 9 10 11 12 13 14 15 16 17 18
000
FTUS44 KBRO 221700 AAA
TAFMFE
TAF AMD
KMFE 221759Z 2218/2318 16009G14KT P6SM SKC
     FM222300 13013G19KT P6SM SKC
     FM230600 14006KT P6SM SKC=

USA.gov is the U.S. government's official web portal to all federal, state and local government web resources and services.